sensor_id;sensor_type;location;lat;lon;timestamp;temperature;humidity
14252;DHT22;7210;51.502;10.722;2023-04-30T00:00:48;4.30;99.90
14252;DHT22;7210;51.502;10.722;2023-04-30T00:03:20;4.30;99.90
14252;DHT22;7210;51.502;10.722;2023-04-30T00:05:49;4.30;99.90
14252;DHT22;7210;51.502;10.722;2023-04-30T00:08:17;4.30;99.90
14252;DHT22;7210;51.502;10.722;2023-04-30T00:10:44;4.10;99.90
14252;DHT22;7210;51.502;10.722;2023-04-30T00:13:11;4.00;99.90
14252;DHT22;7210;51.502;10.722;2023-04-30T00:15:40;4.00;99.90
14252;DHT22;7210;51.502;10.722;2023-04-30T00:18:07;4.00;99.90
14252;DHT22;7210;51.502;10.722;2023-04-30T00:20:34;4.00;99.90
14252;DHT22;7210;51.502;10.722;2023-04-30T00:23:01;4.00;99.90
14252;DHT22;7210;51.502;10.722;2023-04-30T00:25:28;4.10;99.90
14252;DHT22;7210;51.502;10.722;2023-04-30T00:27:56;4.10;99.90
14252;DHT22;7210;51.502;10.722;2023-04-30T00:30:23;4.30;99.90
14252;DHT22;7210;51.502;10.722;2023-04-30T00:32:52;4.40;99.90
14252;DHT22;7210;51.502;10.722;2023-04-30T00:35:19;4.50;99.90
14252;DHT22;7210;51.502;10.722;2023-04-30T00:37:46;4.70;99.90
14252;DHT22;7210;51.502;10.722;2023-04-30T00:40:13;4.70;99.90
14252;DHT22;7210;51.502;10.722;2023-04-30T00:42:41;4.80;99.90
14252;DHT22;7210;51.502;10.722;2023-04-30T00:45:09;4.80;99.90
14252;DHT22;7210;51.502;10.722;2023-04-30T00:47:36;4.80;99.90
14252;DHT22;7210;51.502;10.722;2023-04-30T00:50:06;4.80;99.90
14252;DHT22;7210;51.502;10.722;2023-04-30T00:52:34;4.80;99.90
14252;DHT22;7210;51.502;10.722;2023-04-30T00:55:01;4.70;99.90
14252;DHT22;7210;51.502;10.722;2023-04-30T00:57:29;4.60;99.90
14252;DHT22;7210;51.502;10.722;2023-04-30T00:59:56;4.50;99.90
14252;DHT22;7210;51.502;10.722;2023-04-30T01:02:23;4.40;99.90
14252;DHT22;7210;51.502;10.722;2023-04-30T01:04:53;4.20;99.90
14252;DHT22;7210;51.502;10.722;2023-04-30T01:07:24;4.10;99.90
14252;DHT22;7210;51.502;10.722;2023-04-30T01:09:53;4.00;99.90
14252;DHT22;7210;51.502;10.722;2023-04-30T01:12:27;3.90;99.90
14252;DHT22;7210;51.502;10.722;2023-04-30T01:15:08;3.80;99.90
14252;DHT22;7210;51.502;10.722;2023-04-30T01:17:47;3.70;99.90
14252;DHT22;7210;51.502;10.722;2023-04-30T01:20:20;3.60;99.90
14252;DHT22;7210;51.502;10.722;2023-04-30T01:22:55;3.70;99.90
14252;DHT22;7210;51.502;10.722;2023-04-30T01:25:43;3.70;99.90
14252;DHT22;7210;51.502;10.722;2023-04-30T01:28:27;3.60;99.90
14252;DHT22;7210;51.502;10.722;2023-04-30T01:30:57;3.60;99.90
14252;DHT22;7210;51.502;10.722;2023-04-30T01:33:25;3.60;99.90
14252;DHT22;7210;51.502;10.722;2023-04-30T01:36:20;3.50;99.90
14252;DHT22;7210;51.502;10.722;2023-04-30T01:39:14;3.50;99.90
14252;DHT22;7210;51.502;10.722;2023-04-30T01:41:53;3.40;99.90
14252;DHT22;7210;51.502;10.722;2023-04-30T01:44:48;3.30;99.90
14252;DHT22;7210;51.502;10.722;2023-04-30T01:47:31;3.30;99.90
14252;DHT22;7210;51.502;10.722;2023-04-30T01:50:09;3.20;99.90
14252;DHT22;7210;51.502;10.722;2023-04-30T01:52:46;3.10;99.90
14252;DHT22;7210;51.502;10.722;2023-04-30T01:55:21;3.10;99.90
14252;DHT22;7210;51.502;10.722;2023-04-30T01:57:56;3.10;99.90
14252;DHT22;7210;51.502;10.722;2023-04-30T02:00:28;3.00;99.90
14252;DHT22;7210;51.502;10.722;2023-04-30T02:02:56;3.00;99.90
14252;DHT22;7210;51.502;10.722;2023-04-30T02:05:24;2.90;99.90
14252;DHT22;7210;51.502;10.722;2023-04-30T02:07:52;2.90;99.90
14252;DHT22;7210;51.502;10.722;2023-04-30T02:10:20;2.90;99.90
14252;DHT22;7210;51.502;10.722;2023-04-30T02:12:48;2.80;99.90
14252;DHT22;7210;51.502;10.722;2023-04-30T02:15:16;2.80;99.90
14252;DHT22;7210;51.502;10.722;2023-04-30T02:17:44;2.90;99.90
14252;DHT22;7210;51.502;10.722;2023-04-30T02:20:11;2.80;99.90
14252;DHT22;7210;51.502;10.722;2023-04-30T02:22:39;2.80;99.90
14252;DHT22;7210;51.502;10.722;2023-04-30T02:25:06;2.70;99.90
14252;DHT22;7210;51.502;10.722;2023-04-30T02:27:35;2.60;99.90
14252;DHT22;7210;51.502;10.722;2023-04-30T02:30:03;2.50;99.90
14252;DHT22;7210;51.502;10.722;2023-04-30T02:32:32;2.40;99.90
14252;DHT22;7210;51.502;10.722;2023-04-30T02:35:00;2.40;99.90
14252;DHT22;7210;51.502;10.722;2023-04-30T02:37:27;2.30;99.90
14252;DHT22;7210;51.502;10.722;2023-04-30T02:39:55;2.30;99.90
14252;DHT22;7210;51.502;10.722;2023-04-30T02:42:24;2.30;99.90
14252;DHT22;7210;51.502;10.722;2023-04-30T02:44:51;2.30;99.90
14252;DHT22;7210;51.502;10.722;2023-04-30T02:47:18;2.30;99.90
14252;DHT22;7210;51.502;10.722;2023-04-30T02:49:45;2.30;99.90
14252;DHT22;7210;51.502;10.722;2023-04-30T02:52:14;2.30;99.90
14252;DHT22;7210;51.502;10.722;2023-04-30T02:54:41;2.30;99.90
14252;DHT22;7210;51.502;10.722;2023-04-30T02:57:09;2.30;99.90
14252;DHT22;7210;51.502;10.722;2023-04-30T02:59:36;2.30;99.90
14252;DHT22;7210;51.502;10.722;2023-04-30T03:02:03;2.30;99.90
14252;DHT22;7210;51.502;10.722;2023-04-30T03:04:30;2.30;99.90
14252;DHT22;7210;51.502;10.722;2023-04-30T03:06:57;2.30;99.90
14252;DHT22;7210;51.502;10.722;2023-04-30T03:09:26;2.20;99.90
14252;DHT22;7210;51.502;10.722;2023-04-30T03:11:55;2.10;99.90
14252;DHT22;7210;51.502;10.722;2023-04-30T03:14:22;2.10;99.90
14252;DHT22;7210;51.502;10.722;2023-04-30T03:16:50;2.00;99.90
14252;DHT22;7210;51.502;10.722;2023-04-30T03:19:17;1.90;99.90
14252;DHT22;7210;51.502;10.722;2023-04-30T03:21:50;1.90;99.90
14252;DHT22;7210;51.502;10.722;2023-04-30T03:24:17;1.90;99.90
14252;DHT22;7210;51.502;10.722;2023-04-30T03:26:46;1.80;99.90
14252;DHT22;7210;51.502;10.722;2023-04-30T03:29:13;1.70;99.90
14252;DHT22;7210;51.502;10.722;2023-04-30T03:31:46;1.70;99.90
14252;DHT22;7210;51.502;10.722;2023-04-30T03:34:14;1.60;99.90
14252;DHT22;7210;51.502;10.722;2023-04-30T03:36:41;1.50;99.90
14252;DHT22;7210;51.502;10.722;2023-04-30T03:39:10;1.50;99.90
14252;DHT22;7210;51.502;10.722;2023-04-30T03:41:38;1.50;99.90
14252;DHT22;7210;51.502;10.722;2023-04-30T03:44:06;1.40;99.90
14252;DHT22;7210;51.502;10.722;2023-04-30T03:46:40;1.40;99.90
14252;DHT22;7210;51.502;10.722;2023-04-30T03:49:08;1.40;99.90
14252;DHT22;7210;51.502;10.722;2023-04-30T03:51:36;1.30;99.90
14252;DHT22;7210;51.502;10.722;2023-04-30T03:54:06;1.30;99.90
14252;DHT22;7210;51.502;10.722;2023-04-30T03:56:35;1.30;99.90
14252;DHT22;7210;51.502;10.722;2023-04-30T03:59:03;1.30;99.90
14252;DHT22;7210;51.502;10.722;2023-04-30T04:01:32;1.30;99.90
14252;DHT22;7210;51.502;10.722;2023-04-30T04:04:00;1.50;99.90
14252;DHT22;7210;51.502;10.722;2023-04-30T04:06:29;1.50;99.90
14252;DHT22;7210;51.502;10.722;2023-04-30T04:08:56;1.40;99.90
14252;DHT22;7210;51.502;10.722;2023-04-30T04:11:23;1.40;99.90
14252;DHT22;7210;51.502;10.722;2023-04-30T04:13:50;1.40;99.90
14252;DHT22;7210;51.502;10.722;2023-04-30T04:16:19;1.30;99.90
14252;DHT22;7210;51.502;10.722;2023-04-30T04:18:47;1.30;99.90
14252;DHT22;7210;51.502;10.722;2023-04-30T04:21:15;1.30;99.90
14252;DHT22;7210;51.502;10.722;2023-04-30T04:23:42;1.30;99.90
14252;DHT22;7210;51.502;10.722;2023-04-30T04:26:10;1.40;99.90
14252;DHT22;7210;51.502;10.722;2023-04-30T04:28:38;1.40;99.90
14252;DHT22;7210;51.502;10.722;2023-04-30T04:31:06;1.50;99.90
14252;DHT22;7210;51.502;10.722;2023-04-30T04:33:34;1.50;99.90
14252;DHT22;7210;51.502;10.722;2023-04-30T04:36:01;1.50;99.90
14252;DHT22;7210;51.502;10.722;2023-04-30T04:38:34;1.50;99.90
14252;DHT22;7210;51.502;10.722;2023-04-30T04:41:03;1.60;99.90
14252;DHT22;7210;51.502;10.722;2023-04-30T04:43:30;1.70;99.90
14252;DHT22;7210;51.502;10.722;2023-04-30T04:45:57;1.70;99.90
14252;DHT22;7210;51.502;10.722;2023-04-30T04:48:24;1.70;99.90
14252;DHT22;7210;51.502;10.722;2023-04-30T04:50:53;1.70;99.90
14252;DHT22;7210;51.502;10.722;2023-04-30T04:53:20;1.70;99.90
14252;DHT22;7210;51.502;10.722;2023-04-30T04:55:47;1.70;99.90
14252;DHT22;7210;51.502;10.722;2023-04-30T04:58:14;1.70;99.90
14252;DHT22;7210;51.502;10.722;2023-04-30T05:00:41;1.80;99.90
14252;DHT22;7210;51.502;10.722;2023-04-30T05:03:09;2.00;99.90
14252;DHT22;7210;51.502;10.722;2023-04-30T05:05:37;2.10;99.90
14252;DHT22;7210;51.502;10.722;2023-04-30T05:08:05;2.30;99.90
14252;DHT22;7210;51.502;10.722;2023-04-30T05:10:32;2.40;99.90
14252;DHT22;7210;51.502;10.722;2023-04-30T05:13:00;2.50;99.90
14252;DHT22;7210;51.502;10.722;2023-04-30T05:15:27;2.60;99.90
14252;DHT22;7210;51.502;10.722;2023-04-30T05:17:54;2.70;99.90
14252;DHT22;7210;51.502;10.722;2023-04-30T05:20:21;2.80;99.90
14252;DHT22;7210;51.502;10.722;2023-04-30T05:22:48;3.00;99.90
14252;DHT22;7210;51.502;10.722;2023-04-30T05:25:17;3.10;99.90
14252;DHT22;7210;51.502;10.722;2023-04-30T05:27:45;3.30;99.90
14252;DHT22;7210;51.502;10.722;2023-04-30T05:30:12;3.40;99.90
14252;DHT22;7210;51.502;10.722;2023-04-30T05:32:40;3.60;99.90
14252;DHT22;7210;51.502;10.722;2023-04-30T05:35:08;3.70;99.90
14252;DHT22;7210;51.502;10.722;2023-04-30T05:37:35;3.90;99.90
14252;DHT22;7210;51.502;10.722;2023-04-30T05:40:03;4.20;99.90
14252;DHT22;7210;51.502;10.722;2023-04-30T05:42:32;4.50;99.90
14252;DHT22;7210;51.502;10.722;2023-04-30T05:45:01;4.70;99.90
14252;DHT22;7210;51.502;10.722;2023-04-30T05:47:28;4.90;99.90
14252;DHT22;7210;51.502;10.722;2023-04-30T05:49:55;4.90;99.90
14252;DHT22;7210;51.502;10.722;2023-04-30T05:52:23;4.90;99.90
14252;DHT22;7210;51.502;10.722;2023-04-30T05:54:52;4.90;99.90
14252;DHT22;7210;51.502;10.722;2023-04-30T05:57:20;4.90;99.90
14252;DHT22;7210;51.502;10.722;2023-04-30T05:59:49;4.90;99.90
14252;DHT22;7210;51.502;10.722;2023-04-30T06:02:16;5.00;99.90
14252;DHT22;7210;51.502;10.722;2023-04-30T06:04:43;5.00;99.90
14252;DHT22;7210;51.502;10.722;2023-04-30T06:07:10;5.30;99.90
14252;DHT22;7210;51.502;10.722;2023-04-30T06:09:38;5.40;99.90
14252;DHT22;7210;51.502;10.722;2023-04-30T06:12:05;5.50;99.90
14252;DHT22;7210;51.502;10.722;2023-04-30T06:14:34;5.60;99.90
14252;DHT22;7210;51.502;10.722;2023-04-30T06:17:02;5.70;99.90
14252;DHT22;7210;51.502;10.722;2023-04-30T06:19:30;5.80;99.90
14252;DHT22;7210;51.502;10.722;2023-04-30T06:21:57;5.90;99.90
14252;DHT22;7210;51.502;10.722;2023-04-30T06:24:24;5.90;99.90
14252;DHT22;7210;51.502;10.722;2023-04-30T06:26:52;6.00;99.90
14252;DHT22;7210;51.502;10.722;2023-04-30T06:29:19;6.10;99.90
14252;DHT22;7210;51.502;10.722;2023-04-30T06:31:48;6.30;99.90
14252;DHT22;7210;51.502;10.722;2023-04-30T06:34:18;6.50;99.90
14252;DHT22;7210;51.502;10.722;2023-04-30T06:36:45;6.90;99.90
14252;DHT22;7210;51.502;10.722;2023-04-30T06:39:13;7.10;99.90
14252;DHT22;7210;51.502;10.722;2023-04-30T06:41:41;7.10;99.90
14252;DHT22;7210;51.502;10.722;2023-04-30T06:44:09;7.30;99.90
14252;DHT22;7210;51.502;10.722;2023-04-30T06:46:37;7.50;99.90
14252;DHT22;7210;51.502;10.722;2023-04-30T06:49:04;7.60;99.90
14252;DHT22;7210;51.502;10.722;2023-04-30T06:51:33;7.60;99.90
14252;DHT22;7210;51.502;10.722;2023-04-30T06:54:00;7.60;99.90
14252;DHT22;7210;51.502;10.722;2023-04-30T06:56:28;7.50;99.90
14252;DHT22;7210;51.502;10.722;2023-04-30T06:58:55;7.50;99.90
14252;DHT22;7210;51.502;10.722;2023-04-30T07:01:22;7.60;99.90
14252;DHT22;7210;51.502;10.722;2023-04-30T07:03:49;7.60;99.90
14252;DHT22;7210;51.502;10.722;2023-04-30T07:06:19;7.50;99.90
14252;DHT22;7210;51.502;10.722;2023-04-30T07:08:47;7.50;99.90
14252;DHT22;7210;51.502;10.722;2023-04-30T07:11:14;7.50;99.90
14252;DHT22;7210;51.502;10.722;2023-04-30T07:13:41;7.50;99.90
14252;DHT22;7210;51.502;10.722;2023-04-30T07:16:09;7.50;99.90
14252;DHT22;7210;51.502;10.722;2023-04-30T07:18:36;7.50;99.90
14252;DHT22;7210;51.502;10.722;2023-04-30T07:21:04;7.50;99.90
14252;DHT22;7210;51.502;10.722;2023-04-30T07:23:32;7.50;99.90
14252;DHT22;7210;51.502;10.722;2023-04-30T07:26:01;7.50;99.90
14252;DHT22;7210;51.502;10.722;2023-04-30T07:28:28;7.50;99.90
14252;DHT22;7210;51.502;10.722;2023-04-30T07:30:55;7.50;99.90
14252;DHT22;7210;51.502;10.722;2023-04-30T07:33:22;7.50;99.90
14252;DHT22;7210;51.502;10.722;2023-04-30T07:36:02;7.60;99.90
14252;DHT22;7210;51.502;10.722;2023-04-30T07:38:29;7.70;99.90
14252;DHT22;7210;51.502;10.722;2023-04-30T07:40:57;7.80;99.90
14252;DHT22;7210;51.502;10.722;2023-04-30T07:43:25;7.90;99.90
14252;DHT22;7210;51.502;10.722;2023-04-30T07:45:52;8.00;99.90
14252;DHT22;7210;51.502;10.722;2023-04-30T07:48:20;8.10;99.90
14252;DHT22;7210;51.502;10.722;2023-04-30T07:50:47;8.10;99.90
14252;DHT22;7210;51.502;10.722;2023-04-30T07:53:14;8.20;99.90
14252;DHT22;7210;51.502;10.722;2023-04-30T07:55:41;8.20;99.90
14252;DHT22;7210;51.502;10.722;2023-04-30T07:58:10;8.20;99.90
14252;DHT22;7210;51.502;10.722;2023-04-30T08:00:39;8.30;99.90
14252;DHT22;7210;51.502;10.722;2023-04-30T08:03:06;8.40;99.90
14252;DHT22;7210;51.502;10.722;2023-04-30T08:05:34;8.50;99.90
14252;DHT22;7210;51.502;10.722;2023-04-30T08:08:01;8.50;99.90
14252;DHT22;7210;51.502;10.722;2023-04-30T08:10:28;8.60;99.90
14252;DHT22;7210;51.502;10.722;2023-04-30T08:12:55;8.60;99.90
14252;DHT22;7210;51.502;10.722;2023-04-30T08:15:22;8.80;99.90
14252;DHT22;7210;51.502;10.722;2023-04-30T08:17:51;8.80;99.90
14252;DHT22;7210;51.502;10.722;2023-04-30T08:20:18;8.90;99.90
14252;DHT22;7210;51.502;10.722;2023-04-30T08:22:53;9.00;99.90
14252;DHT22;7210;51.502;10.722;2023-04-30T08:25:20;9.00;99.90
14252;DHT22;7210;51.502;10.722;2023-04-30T08:27:47;9.10;99.90
14252;DHT22;7210;51.502;10.722;2023-04-30T08:30:14;9.10;99.90
14252;DHT22;7210;51.502;10.722;2023-04-30T08:32:41;9.20;99.90
14252;DHT22;7210;51.502;10.722;2023-04-30T08:35:10;9.30;99.90
14252;DHT22;7210;51.502;10.722;2023-04-30T08:37:40;9.30;99.90
14252;DHT22;7210;51.502;10.722;2023-04-30T08:40:08;9.30;99.90
14252;DHT22;7210;51.502;10.722;2023-04-30T08:42:40;9.50;99.90
14252;DHT22;7210;51.502;10.722;2023-04-30T08:45:12;9.60;99.90
14252;DHT22;7210;51.502;10.722;2023-04-30T08:47:40;9.70;99.90
14252;DHT22;7210;51.502;10.722;2023-04-30T08:50:11;9.80;99.90
14252;DHT22;7210;51.502;10.722;2023-04-30T08:52:39;9.80;99.90
14252;DHT22;7210;51.502;10.722;2023-04-30T08:55:09;10.00;99.90
14252;DHT22;7210;51.502;10.722;2023-04-30T08:57:36;10.00;99.90
14252;DHT22;7210;51.502;10.722;2023-04-30T09:00:05;10.10;99.90
14252;DHT22;7210;51.502;10.722;2023-04-30T09:02:33;10.20;99.90
14252;DHT22;7210;51.502;10.722;2023-04-30T09:05:07;10.30;99.90
14252;DHT22;7210;51.502;10.722;2023-04-30T09:07:40;10.40;99.90
14252;DHT22;7210;51.502;10.722;2023-04-30T09:10:13;10.60;99.90
14252;DHT22;7210;51.502;10.722;2023-04-30T09:12:42;10.60;99.90
14252;DHT22;7210;51.502;10.722;2023-04-30T09:15:11;10.60;99.90
14252;DHT22;7210;51.502;10.722;2023-04-30T09:17:38;10.60;99.90
14252;DHT22;7210;51.502;10.722;2023-04-30T09:20:07;10.70;1.00
14252;DHT22;7210;51.502;10.722;2023-04-30T09:22:36;10.70;1.00
14252;DHT22;7210;51.502;10.722;2023-04-30T09:25:06;10.70;1.00
14252;DHT22;7210;51.502;10.722;2023-04-30T09:27:34;10.70;1.00
14252;DHT22;7210;51.502;10.722;2023-04-30T09:30:02;10.80;1.00
14252;DHT22;7210;51.502;10.722;2023-04-30T09:32:30;10.80;1.00
14252;DHT22;7210;51.502;10.722;2023-04-30T09:34:59;10.80;1.00
14252;DHT22;7210;51.502;10.722;2023-04-30T09:37:35;11.00;1.00
14252;DHT22;7210;51.502;10.722;2023-04-30T09:40:03;11.10;1.00
14252;DHT22;7210;51.502;10.722;2023-04-30T09:42:32;11.30;1.00
14252;DHT22;7210;51.502;10.722;2023-04-30T09:44:59;11.40;1.00
14252;DHT22;7210;51.502;10.722;2023-04-30T09:47:29;11.60;1.00
14252;DHT22;7210;51.502;10.722;2023-04-30T09:49:58;11.80;1.00
14252;DHT22;7210;51.502;10.722;2023-04-30T09:52:26;11.80;1.00
14252;DHT22;7210;51.502;10.722;2023-04-30T09:54:53;11.80;1.00
14252;DHT22;7210;51.502;10.722;2023-04-30T09:57:22;11.90;1.00
14252;DHT22;7210;51.502;10.722;2023-04-30T09:59:51;12.10;1.00
14252;DHT22;7210;51.502;10.722;2023-04-30T10:02:19;12.10;1.00
14252;DHT22;7210;51.502;10.722;2023-04-30T10:04:55;12.20;1.00
14252;DHT22;7210;51.502;10.722;2023-04-30T10:07:35;12.30;1.00
14252;DHT22;7210;51.502;10.722;2023-04-30T10:10:07;12.50;1.00
14252;DHT22;7210;51.502;10.722;2023-04-30T10:12:43;12.50;1.00
14252;DHT22;7210;51.502;10.722;2023-04-30T10:15:22;12.50;1.00
14252;DHT22;7210;51.502;10.722;2023-04-30T10:17:59;12.60;1.00
14252;DHT22;7210;51.502;10.722;2023-04-30T10:20:30;12.70;1.00
14252;DHT22;7210;51.502;10.722;2023-04-30T10:23:02;12.80;1.00
14252;DHT22;7210;51.502;10.722;2023-04-30T10:25:31;13.00;1.00
14252;DHT22;7210;51.502;10.722;2023-04-30T10:28:00;13.10;1.00
14252;DHT22;7210;51.502;10.722;2023-04-30T10:30:27;13.20;1.00
14252;DHT22;7210;51.502;10.722;2023-04-30T10:33:05;13.20;1.00
14252;DHT22;7210;51.502;10.722;2023-04-30T10:35:45;13.40;1.00
14252;DHT22;7210;51.502;10.722;2023-04-30T10:38:21;13.50;1.00
14252;DHT22;7210;51.502;10.722;2023-04-30T10:40:54;13.60;1.00
14252;DHT22;7210;51.502;10.722;2023-04-30T10:43:24;13.70;1.00
14252;DHT22;7210;51.502;10.722;2023-04-30T10:45:52;13.80;1.00
14252;DHT22;7210;51.502;10.722;2023-04-30T10:48:23;13.90;1.00
14252;DHT22;7210;51.502;10.722;2023-04-30T10:50:54;13.80;1.00
14252;DHT22;7210;51.502;10.722;2023-04-30T10:53:22;14.00;1.00
14252;DHT22;7210;51.502;10.722;2023-04-30T10:55:56;14.10;1.00
14252;DHT22;7210;51.502;10.722;2023-04-30T10:58:29;14.10;1.00
14252;DHT22;7210;51.502;10.722;2023-04-30T11:01:00;14.10;1.00
14252;DHT22;7210;51.502;10.722;2023-04-30T11:03:35;14.20;1.00
14252;DHT22;7210;51.502;10.722;2023-04-30T11:06:10;14.40;1.00
14252;DHT22;7210;51.502;10.722;2023-04-30T11:08:39;14.50;1.00
14252;DHT22;7210;51.502;10.722;2023-04-30T11:11:10;14.70;1.00
14252;DHT22;7210;51.502;10.722;2023-04-30T11:13:44;14.70;1.00
14252;DHT22;7210;51.502;10.722;2023-04-30T11:16:17;14.80;1.00
14252;DHT22;7210;51.502;10.722;2023-04-30T11:18:45;15.10;1.00
14252;DHT22;7210;51.502;10.722;2023-04-30T11:21:13;15.30;1.00
14252;DHT22;7210;51.502;10.722;2023-04-30T11:23:40;15.40;1.00
14252;DHT22;7210;51.502;10.722;2023-04-30T11:26:09;15.50;1.00
14252;DHT22;7210;51.502;10.722;2023-04-30T11:28:37;15.70;1.00
14252;DHT22;7210;51.502;10.722;2023-04-30T11:31:05;16.00;1.00
14252;DHT22;7210;51.502;10.722;2023-04-30T11:33:33;16.10;1.00
14252;DHT22;7210;51.502;10.722;2023-04-30T11:36:00;15.90;1.00
14252;DHT22;7210;51.502;10.722;2023-04-30T11:38:29;15.80;1.00
14252;DHT22;7210;51.502;10.722;2023-04-30T11:41:00;15.60;1.00
14252;DHT22;7210;51.502;10.722;2023-04-30T11:43:31;15.50;1.00
14252;DHT22;7210;51.502;10.722;2023-04-30T11:46:00;15.40;1.00
14252;DHT22;7210;51.502;10.722;2023-04-30T11:48:33;15.30;1.00
14252;DHT22;7210;51.502;10.722;2023-04-30T11:51:05;15.40;1.00
14252;DHT22;7210;51.502;10.722;2023-04-30T11:53:41;15.40;1.00
14252;DHT22;7210;51.502;10.722;2023-04-30T11:56:10;15.70;1.00
14252;DHT22;7210;51.502;10.722;2023-04-30T11:58:38;15.90;1.00
14252;DHT22;7210;51.502;10.722;2023-04-30T12:01:06;16.20;1.00
14252;DHT22;7210;51.502;10.722;2023-04-30T12:03:41;16.50;1.00
14252;DHT22;7210;51.502;10.722;2023-04-30T12:06:10;16.80;1.00
14252;DHT22;7210;51.502;10.722;2023-04-30T12:08:40;16.90;1.00
14252;DHT22;7210;51.502;10.722;2023-04-30T12:11:19;16.90;1.00
14252;DHT22;7210;51.502;10.722;2023-04-30T12:13:50;17.00;1.00
14252;DHT22;7210;51.502;10.722;2023-04-30T12:16:18;17.00;1.00
14252;DHT22;7210;51.502;10.722;2023-04-30T12:18:47;16.90;1.00
14252;DHT22;7210;51.502;10.722;2023-04-30T12:21:14;16.90;1.00
14252;DHT22;7210;51.502;10.722;2023-04-30T12:23:42;17.00;1.00
14252;DHT22;7210;51.502;10.722;2023-04-30T12:26:10;17.20;1.00
14252;DHT22;7210;51.502;10.722;2023-04-30T12:28:38;17.50;1.00
14252;DHT22;7210;51.502;10.722;2023-04-30T12:31:05;17.80;1.00
14252;DHT22;7210;51.502;10.722;2023-04-30T12:33:32;17.90;1.00
14252;DHT22;7210;51.502;10.722;2023-04-30T12:36:01;17.80;1.00
14252;DHT22;7210;51.502;10.722;2023-04-30T12:38:28;17.90;1.00
14252;DHT22;7210;51.502;10.722;2023-04-30T12:40:58;17.80;1.00
14252;DHT22;7210;51.502;10.722;2023-04-30T12:43:30;17.90;1.00
14252;DHT22;7210;51.502;10.722;2023-04-30T12:45:57;18.10;1.00
14252;DHT22;7210;51.502;10.722;2023-04-30T12:48:25;18.10;1.00
14252;DHT22;7210;51.502;10.722;2023-04-30T12:50:53;17.90;1.00
14252;DHT22;7210;51.502;10.722;2023-04-30T12:53:23;17.80;1.00
14252;DHT22;7210;51.502;10.722;2023-04-30T12:56:07;17.40;1.00
14252;DHT22;7210;51.502;10.722;2023-04-30T12:58:40;17.20;1.00
14252;DHT22;7210;51.502;10.722;2023-04-30T13:01:10;17.30;1.00
14252;DHT22;7210;51.502;10.722;2023-04-30T13:03:38;17.50;1.00
14252;DHT22;7210;51.502;10.722;2023-04-30T13:06:05;17.90;1.00
14252;DHT22;7210;51.502;10.722;2023-04-30T13:08:36;18.10;1.00
14252;DHT22;7210;51.502;10.722;2023-04-30T13:11:04;18.50;1.00
14252;DHT22;7210;51.502;10.722;2023-04-30T13:13:32;18.80;1.00
14252;DHT22;7210;51.502;10.722;2023-04-30T13:16:05;19.00;1.00
14252;DHT22;7210;51.502;10.722;2023-04-30T13:18:33;19.00;1.00
14252;DHT22;7210;51.502;10.722;2023-04-30T13:21:00;18.80;1.00
14252;DHT22;7210;51.502;10.722;2023-04-30T13:23:27;18.60;1.00
14252;DHT22;7210;51.502;10.722;2023-04-30T13:25:56;18.80;1.00
14252;DHT22;7210;51.502;10.722;2023-04-30T13:28:23;18.90;1.00
14252;DHT22;7210;51.502;10.722;2023-04-30T13:30:50;19.20;1.00
14252;DHT22;7210;51.502;10.722;2023-04-30T13:33:23;19.00;1.00
14252;DHT22;7210;51.502;10.722;2023-04-30T13:35:50;19.10;1.00
14252;DHT22;7210;51.502;10.722;2023-04-30T13:38:17;19.20;1.00
14252;DHT22;7210;51.502;10.722;2023-04-30T13:40:44;19.10;1.00
14252;DHT22;7210;51.502;10.722;2023-04-30T13:43:12;19.40;1.00
14252;DHT22;7210;51.502;10.722;2023-04-30T13:45:40;19.50;1.00
14252;DHT22;7210;51.502;10.722;2023-04-30T13:48:07;19.60;1.00
14252;DHT22;7210;51.502;10.722;2023-04-30T13:50:34;19.70;1.00
14252;DHT22;7210;51.502;10.722;2023-04-30T13:53:01;19.70;1.00
14252;DHT22;7210;51.502;10.722;2023-04-30T13:55:28;19.70;1.00
14252;DHT22;7210;51.502;10.722;2023-04-30T13:57:56;19.80;1.00
14252;DHT22;7210;51.502;10.722;2023-04-30T14:00:24;19.80;1.00
14252;DHT22;7210;51.502;10.722;2023-04-30T14:02:52;19.90;1.00
14252;DHT22;7210;51.502;10.722;2023-04-30T14:05:20;19.80;1.00
14252;DHT22;7210;51.502;10.722;2023-04-30T14:07:47;19.80;1.00
14252;DHT22;7210;51.502;10.722;2023-04-30T14:10:14;19.80;1.00
14252;DHT22;7210;51.502;10.722;2023-04-30T14:12:41;19.80;1.00
14252;DHT22;7210;51.502;10.722;2023-04-30T14:15:09;19.80;1.00
14252;DHT22;7210;51.502;10.722;2023-04-30T14:17:38;19.60;1.00
14252;DHT22;7210;51.502;10.722;2023-04-30T14:20:11;19.40;1.00
14252;DHT22;7210;51.502;10.722;2023-04-30T14:22:39;19.50;1.00
14252;DHT22;7210;51.502;10.722;2023-04-30T14:25:07;19.50;1.00
14252;DHT22;7210;51.502;10.722;2023-04-30T14:27:35;19.60;1.00
14252;DHT22;7210;51.502;10.722;2023-04-30T14:30:03;19.70;1.00
14252;DHT22;7210;51.502;10.722;2023-04-30T14:32:32;19.60;1.00
14252;DHT22;7210;51.502;10.722;2023-04-30T14:35:01;19.80;1.00
14252;DHT22;7210;51.502;10.722;2023-04-30T14:37:28;19.80;1.00
14252;DHT22;7210;51.502;10.722;2023-04-30T14:39:55;19.70;1.00
14252;DHT22;7210;51.502;10.722;2023-04-30T14:42:23;19.70;1.00
14252;DHT22;7210;51.502;10.722;2023-04-30T14:44:50;19.40;1.00
14252;DHT22;7210;51.502;10.722;2023-04-30T14:47:18;19.20;1.00
14252;DHT22;7210;51.502;10.722;2023-04-30T14:49:46;19.30;1.00
14252;DHT22;7210;51.502;10.722;2023-04-30T14:52:18;19.60;1.00
14252;DHT22;7210;51.502;10.722;2023-04-30T14:54:45;19.50;1.00
14252;DHT22;7210;51.502;10.722;2023-04-30T14:57:13;19.40;1.00
14252;DHT22;7210;51.502;10.722;2023-04-30T14:59:40;19.80;1.00
14252;DHT22;7210;51.502;10.722;2023-04-30T15:02:07;19.80;1.00
14252;DHT22;7210;51.502;10.722;2023-04-30T15:04:35;20.20;1.00
14252;DHT22;7210;51.502;10.722;2023-04-30T15:07:02;20.60;1.00
14252;DHT22;7210;51.502;10.722;2023-04-30T15:09:31;20.90;1.00
14252;DHT22;7210;51.502;10.722;2023-04-30T15:11:58;20.80;1.00
14252;DHT22;7210;51.502;10.722;2023-04-30T15:14:25;20.50;1.00
14252;DHT22;7210;51.502;10.722;2023-04-30T15:16:52;20.60;1.00
14252;DHT22;7210;51.502;10.722;2023-04-30T15:19:19;20.50;1.00
14252;DHT22;7210;51.502;10.722;2023-04-30T15:21:47;20.60;1.00
14252;DHT22;7210;51.502;10.722;2023-04-30T15:24:14;20.40;1.00
14252;DHT22;7210;51.502;10.722;2023-04-30T15:26:44;20.30;1.00
14252;DHT22;7210;51.502;10.722;2023-04-30T15:29:11;20.40;1.00
14252;DHT22;7210;51.502;10.722;2023-04-30T15:31:38;20.40;1.00
14252;DHT22;7210;51.502;10.722;2023-04-30T15:34:05;20.30;1.00
14252;DHT22;7210;51.502;10.722;2023-04-30T15:36:33;20.10;1.00
14252;DHT22;7210;51.502;10.722;2023-04-30T15:39:01;19.60;1.00
14252;DHT22;7210;51.502;10.722;2023-04-30T15:41:30;19.50;1.00
14252;DHT22;7210;51.502;10.722;2023-04-30T15:44:00;19.70;1.00
14252;DHT22;7210;51.502;10.722;2023-04-30T15:46:27;19.90;1.00
14252;DHT22;7210;51.502;10.722;2023-04-30T15:48:55;19.90;1.00
14252;DHT22;7210;51.502;10.722;2023-04-30T15:51:22;19.60;1.00
14252;DHT22;7210;51.502;10.722;2023-04-30T15:53:50;19.50;1.00
14252;DHT22;7210;51.502;10.722;2023-04-30T15:56:17;19.50;1.00